Time;durP1;ratioP1;P1;durP2;ratioP2;P2;SDS_P1;SDS_P2;PMS_P1;PMS_P2;Temp;Humidity;BMP_temperature;BMP_pressure;BME280_temperature;BME280_humidity;BME280_pressure;Samples;Min_cycle;Max_cycle;Signal;HPM_P1;HPM_P2
2021/08/20 00:03:22;;;;;;;4.37;1.97;;;16.40;99.90;;;;;;20983884;28;20035;-77
2021/08/20 00:13:23;;;;;;;4.50;1.87;;;16.30;99.90;;;;;;21011787;28;20055;-77
2021/08/20 00:23:24;;;;;;;2.67;1.83;;;16.50;99.90;;;;;;21010542;28;20027;-77
2021/08/20 00:33:25;;;;;;;4.70;1.77;;;16.60;99.90;;;;;;20982148;28;20032;-77
2021/08/20 00:43:26;;;;;;;4.00;2.00;;;16.50;99.90;;;;;;20979578;28;20071;-77
2021/08/20 00:53:27;;;;;;;5.30;2.60;;;16.30;99.90;;;;;;20995775;28;20441;-77
2021/08/20 01:03:29;;;;;;;5.28;2.53;;;16.10;99.90;;;;;;21011841;28;20052;-77
2021/08/20 01:13:42;;;;;;;3.53;2.10;;;16.10;99.90;;;;;;20989950;28;20033;-77
2021/08/20 01:23:58;;;;;;;7.30;2.13;;;16.10;99.90;;;;;;20976459;28;20070;-77
2021/08/20 01:33:59;;;;;;;5.28;2.35;;;16.00;99.90;;;;;;20974260;28;20028;-77
2021/08/20 01:44:01;;;;;;;6.80;2.30;;;16.00;99.90;;;;;;20991452;28;20035;-77
2021/08/20 01:54:03;;;;;;;7.93;2.00;;;16.00;99.90;;;;;;21019676;28;20078;-76
2021/08/20 02:04:05;;;;;;;6.05;2.05;;;16.10;99.90;;;;;;20989277;28;20028;-77
2021/08/20 02:14:08;;;;;;;5.07;2.13;;;16.10;99.90;;;;;;21013364;28;20108;-77
2021/08/20 02:24:11;;;;;;;3.85;2.20;;;16.20;99.90;;;;;;20997345;28;20040;-77
2021/08/20 02:34:13;;;;;;;6.60;2.00;;;16.10;99.90;;;;;;21009568;28;20082;-77
2021/08/20 02:44:15;;;;;;;2.73;1.83;;;16.10;99.90;;;;;;21004681;28;20033;-77
2021/08/20 02:54:16;;;;;;;6.10;2.03;;;16.00;99.90;;;;;;21023419;28;20430;-77
2021/08/20 03:04:17;;;;;;;3.77;2.23;;;15.90;99.90;;;;;;20989168;28;20036;-76
2021/08/20 03:14:21;;;;;;;6.22;2.42;;;15.90;99.90;;;;;;20985037;28;20025;-77
2021/08/20 03:24:28;;;;;;;7.47;2.50;;;15.80;99.90;;;;;;20985249;28;20036;-76
2021/08/20 03:34:29;;;;;;;6.37;2.30;;;15.90;99.90;;;;;;20982590;28;20052;-76
2021/08/20 03:44:30;;;;;;;3.33;2.27;;;15.80;99.90;;;;;;20993260;28;20063;-76
2021/08/20 03:54:31;;;;;;;4.97;2.40;;;15.80;99.90;;;;;;20999776;28;20046;-76
2021/08/20 04:04:32;;;;;;;2.70;2.17;;;15.70;99.90;;;;;;20980831;28;20032;-76
2021/08/20 04:15:12;;;;;;;5.72;2.50;;;15.70;99.90;;;;;;20986326;28;20079;-76
2021/08/20 04:25:13;;;;;;;;;;;15.70;99.90;;;;;;21002139;22;20498;-75
2021/08/20 04:35:33;;;;;;;3.95;2.47;;;15.70;99.90;;;;;;21060293;28;20377;-77
2021/08/20 04:45:57;;;;;;;4.90;2.00;;;15.60;99.90;;;;;;21080494;28;20042;-78
2021/08/20 04:56:20;;;;;;;3.15;2.30;;;15.70;99.90;;;;;;21042659;28;20032;-78
2021/08/20 05:06:21;;;;;;;6.07;2.57;;;15.50;99.90;;;;;;21069240;28;20043;-77
2021/08/20 05:16:22;;;;;;;2.93;2.07;;;15.70;99.90;;;;;;21087238;28;20075;-76
2021/08/20 05:26:25;;;;;;;3.70;1.93;;;15.80;99.90;;;;;;21080877;28;20043;-77
2021/08/20 05:36:27;;;;;;;3.10;2.03;;;16.00;99.90;;;;;;21080717;28;20454;-78
2021/08/20 05:46:28;;;;;;;;;;;16.20;99.90;;;;;;21078238;28;20105;-78
2021/08/20 05:56:28;;;;;;;6.03;2.40;;;16.50;99.90;;;;;;21066570;28;19916;-77
2021/08/20 06:06:29;;;;;;;3.60;2.70;;;16.70;99.90;;;;;;21051611;28;20307;-76
2021/08/20 06:16:31;;;;;;;5.65;2.83;;;16.90;99.90;;;;;;21034720;28;20032;-77
2021/08/20 06:26:31;;;;;;;8.47;2.67;;;17.10;99.90;;;;;;21053977;28;20044;-77
2021/08/20 06:36:32;;;;;;;5.47;2.30;;;17.30;99.90;;;;;;21052832;28;20500;-77
2021/08/20 06:46:33;;;;;;;4.53;2.43;;;17.80;99.90;;;;;;21035046;28;20036;-77
2021/08/20 06:56:34;;;;;;;4.00;2.73;;;17.90;99.90;;;;;;21052583;28;20032;-77
2021/08/20 07:06:35;;;;;;;3.77;2.87;;;18.10;99.90;;;;;;21051654;28;20028;-78
2021/08/20 07:16:35;;;;;;;3.23;1.90;;;18.70;99.90;;;;;;21063501;28;20028;-76
2021/08/20 07:26:36;;;;;;;5.03;2.90;;;19.60;99.90;;;;;;21065367;28;20040;-77
2021/08/20 07:36:37;;;;;;;4.90;2.73;;;19.10;99.90;;;;;;21067081;28;20562;-77
2021/08/20 07:46:38;;;;;;;8.63;3.63;;;19.70;99.90;;;;;;21065184;28;20111;-77
2021/08/20 07:56:39;;;;;;;10.43;2.43;;;20.30;99.90;;;;;;21064271;28;20105;-77
2021/08/20 08:06:40;;;;;;;7.60;2.53;;;20.80;99.90;;;;;;21063279;28;20036;-77
2021/08/20 08:16:41;;;;;;;5.10;2.63;;;21.70;99.90;;;;;;21044680;28;20032;-77
2021/08/20 08:26:42;;;;;;;7.95;2.60;;;22.20;99.90;;;;;;21061868;28;20063;-77
2021/08/20 08:36:43;;;;;;;3.83;2.23;;;22.70;99.90;;;;;;21064249;28;20081;-77
2021/08/20 08:46:44;;;;;;;3.50;2.27;;;23.90;99.90;;;;;;21060842;28;20102;-77
2021/08/20 08:56:47;;;;;;;3.47;1.90;;;23.60;99.90;;;;;;21064349;28;20031;-78
2021/08/20 09:06:50;;;;;;;4.85;2.17;;;23.90;99.90;;;;;;21063155;28;20690;-78
2021/08/20 09:16:54;;;;;;;3.70;1.98;;;24.50;99.90;;;;;;21061344;28;20493;-77
2021/08/20 09:26:55;;;;;;;3.03;1.80;;;24.70;99.90;;;;;;21056857;28;20047;-76
2021/08/20 09:36:56;;;;;;;;;;;24.30;99.90;;;;;;21055096;28;20036;-77
2021/08/20 09:47:03;;;;;;;2.65;1.42;;;25.30;99.90;;;;;;21093522;28;19918;-76
2021/08/20 09:57:04;;;;;;;4.07;1.80;;;25.50;99.90;;;;;;21058709;28;20040;-77
2021/08/20 10:07:05;;;;;;;3.20;2.03;;;26.50;99.90;;;;;;21036041;28;20506;-77
2021/08/20 10:17:08;;;;;;;5.53;1.83;;;26.80;99.90;;;;;;21053989;28;20118;-76
2021/08/20 10:27:10;;;;;;;4.35;1.75;;;26.80;99.90;;;;;;20993482;22;20056;-76
2021/08/20 10:37:23;;;;;;;3.13;1.83;;;26.80;99.90;;;;;;20952913;28;20037;-77
2021/08/20 10:47:28;;;;;;;5.75;1.70;;;26.20;99.90;;;;;;20967613;28;20120;-77
2021/08/20 10:57:34;;;;;;;4.00;1.80;;;26.90;99.90;;;;;;21016177;28;20036;-79
2021/08/20 11:07:38;;;;;;;5.18;2.10;;;26.90;99.90;;;;;;20972596;28;20421;-79
2021/08/20 11:17:49;;;;;;;4.65;2.15;;;26.80;99.90;;;;;;21012278;28;20498;-76
2021/08/20 11:27:58;;;;;;;3.73;2.03;;;26.70;99.90;;;;;;21043164;28;20115;-77
2021/08/20 11:37:59;;;;;;;2.97;2.00;;;27.30;99.90;;;;;;20979616;28;20032;-76
2021/08/20 11:48:00;;;;;;;6.90;2.55;;;27.60;99.90;;;;;;20979528;28;20028;-76
2021/08/20 11:58:00;;;;;;;4.40;2.42;;;27.50;99.90;;;;;;20978849;28;20025;-77
2021/08/20 12:08:14;;;;;;;4.43;2.93;;;27.30;99.90;;;;;;21033135;28;20028;-78
2021/08/20 12:18:22;;;;;;;4.97;3.33;;;28.20;99.90;;;;;;20988875;28;20283;-77
2021/08/20 12:28:23;;;;;;;4.93;2.90;;;27.80;99.90;;;;;;20977309;28;20419;-78
2021/08/20 12:38:24;;;;;;;5.00;3.20;;;28.00;99.90;;;;;;20974277;28;20029;-76
2021/08/20 12:48:25;;;;;;;3.83;2.88;;;27.30;99.90;;;;;;20958118;28;20032;-77
2021/08/20 12:58:28;;;;;;;7.63;3.20;;;27.70;99.90;;;;;;20973748;28;20037;-77
2021/08/20 13:08:31;;;;;;;5.88;2.80;;;26.90;99.90;;;;;;20974251;28;20320;-78
2021/08/20 13:18:33;;;;;;;12.18;3.50;;;27.30;99.90;;;;;;20972621;28;20059;-76
2021/08/20 13:28:34;;;;;;;3.97;2.65;;;26.60;99.90;;;;;;20972832;28;20040;-77
2021/08/20 13:38:36;;;;;;;6.35;3.25;;;26.40;99.90;;;;;;20972201;28;20040;-78
2021/08/20 13:48:37;;;;;;;5.68;3.05;;;26.40;99.90;;;;;;20973597;28;20044;-78
2021/08/20 13:58:40;;;;;;;4.80;2.70;;;26.30;99.90;;;;;;20982714;28;20059;-79
2021/08/20 14:08:41;;;;;;;6.47;3.60;;;27.20;99.90;;;;;;20981924;28;20021;-78
2021/08/20 14:18:42;;;;;;;5.50;2.42;;;26.40;99.90;;;;;;20981383;28;20044;-79
2021/08/20 14:28:43;;;;;;;4.03;2.70;;;26.60;99.90;;;;;;20993786;28;20131;-79
2021/08/20 14:38:46;;;;;;;3.67;2.60;;;26.50;99.90;;;;;;20994370;28;20508;-77
2021/08/20 14:48:46;;;;;;;4.47;2.80;;;26.00;99.90;;;;;;20992682;28;20040;-78
2021/08/20 14:58:47;;;;;;;6.68;2.33;;;26.20;99.90;;;;;;20987960;28;20041;-77
2021/08/20 15:08:48;;;;;;;5.30;2.53;;;26.70;99.90;;;;;;20988585;28;20036;-78
2021/08/20 15:18:49;;;;;;;6.95;2.50;;;26.00;99.90;;;;;;20964124;28;20032;-77
2021/08/20 15:28:50;;;;;;;5.13;2.38;;;26.10;99.90;;;;;;20964034;28;20425;-77
2021/08/20 15:38:51;;;;;;;3.60;3.22;;;25.90;99.90;;;;;;20995414;28;20032;-76
2021/08/20 15:48:52;;;;;;;;;;;25.70;99.90;;;;;;20976413;28;20082;-77
2021/08/20 15:58:53;;;;;;;5.72;2.95;;;25.40;99.90;;;;;;20990800;28;19974;-77
2021/08/20 16:08:53;;;;;;;;;;;25.30;99.90;;;;;;20979474;28;20502;-79
2021/08/20 16:18:54;;;;;;;2.87;2.33;;;25.10;99.90;;;;;;21007864;22;19916;-74
2021/08/20 16:28:55;;;;;;;;;;;25.10;99.90;;;;;;20816845;28;20132;-77
2021/08/20 16:38:56;;;;;;;4.80;2.70;;;24.80;99.90;;;;;;20812546;28;19917;-76
2021/08/20 16:48:57;;;;;;;;;;;24.60;99.90;;;;;;20792951;28;20163;-76
2021/08/20 16:58:57;;;;;;;3.95;2.75;;;24.30;99.90;;;;;;20810555;28;19952;-76
2021/08/20 17:09:00;;;;;;;5.88;2.50;;;24.20;99.90;;;;;;20810907;28;20095;-76
2021/08/20 17:19:02;;;;;;;5.40;3.10;;;24.10;99.90;;;;;;20791584;28;20068;-76
2021/08/20 17:29:03;;;;;;;5.40;3.25;;;23.90;99.90;;;;;;20809108;28;20034;-76
2021/08/20 17:39:04;;;;;;;5.40;2.80;;;23.80;99.90;;;;;;20808262;28;20041;-77
2021/08/20 17:49:05;;;;;;;7.73;2.87;;;23.60;99.90;;;;;;20790129;28;20041;-76
2021/08/20 17:59:06;;;;;;;3.40;2.80;;;23.00;99.90;;;;;;20812089;28;20029;-76
2021/08/20 18:09:07;;;;;;;6.83;3.10;;;22.30;99.90;;;;;;20788787;28;20045;-77
2021/08/20 18:19:07;;;;;;;6.63;3.50;;;21.80;99.90;;;;;;20807625;28;20048;-75
2021/08/20 18:29:09;;;;;;;5.63;2.97;;;21.40;99.90;;;;;;20809562;28;20120;-76
2021/08/20 18:39:09;;;;;;;;;;;20.80;99.90;;;;;;20805902;28;20042;-76
2021/08/20 18:49:10;;;;;;;6.57;4.20;;;20.40;99.90;;;;;;20804119;28;19913;-77
2021/08/20 18:59:11;;;;;;;9.43;4.40;;;20.10;99.90;;;;;;20804135;28;20734;-77
2021/08/20 19:09:12;;;;;;;7.47;4.17;;;19.90;99.90;;;;;;20811196;28;20057;-77
2021/08/20 19:19:13;;;;;;;8.02;4.72;;;19.90;99.90;;;;;;20818831;28;20044;-77
2021/08/20 19:29:14;;;;;;;6.73;4.03;;;19.30;99.90;;;;;;20817715;28;20810;-76
2021/08/20 19:39:16;;;;;;;7.47;4.13;;;19.20;99.90;;;;;;20824153;28;20029;-76
2021/08/20 19:49:17;;;;;;;8.68;4.10;;;18.50;99.90;;;;;;20816202;28;20093;-78
2021/08/20 19:59:18;;;;;;;9.60;6.23;;;18.20;99.90;;;;;;20816843;28;20130;-77
2021/08/20 20:09:19;;;;;;;11.20;4.97;;;18.50;99.90;;;;;;20822441;28;20136;-77
2021/08/20 20:19:21;;;;;;;8.20;5.10;;;18.10;99.90;;;;;;20831794;28;20503;-77
2021/08/20 20:29:23;;;;;;;8.15;5.05;;;17.80;99.90;;;;;;20835647;28;20099;-77
2021/08/20 20:39:23;;;;;;;9.40;5.55;;;17.50;99.90;;;;;;20853404;28;20033;-77
2021/08/20 20:49:24;;;;;;;8.03;4.17;;;17.20;99.90;;;;;;20855148;28;20087;-76
2021/08/20 20:59:26;;;;;;;8.63;4.77;;;17.20;99.90;;;;;;20851926;28;20033;-76
2021/08/20 21:09:26;;;;;;;6.90;4.20;;;17.00;99.90;;;;;;20852021;28;20041;-77
2021/08/20 21:19:27;;;;;;;8.73;5.00;;;16.90;99.90;;;;;;20838830;28;20562;-77
2021/08/20 21:29:28;;;;;;;8.77;4.70;;;16.70;99.90;;;;;;20846019;28;20032;-77
2021/08/20 21:39:29;;;;;;;7.23;4.33;;;16.80;99.90;;;;;;20841114;28;20128;-76
2021/08/20 21:49:32;;;;;;;6.20;4.67;;;16.50;99.90;;;;;;20846573;28;20067;-76
2021/08/20 21:59:33;;;;;;;10.35;5.50;;;16.30;99.90;;;;;;20850206;28;20104;-76
2021/08/20 22:09:33;;;;;;;7.90;5.00;;;16.50;99.90;;;;;;20845407;28;20097;-77
2021/08/20 22:19:34;;;;;;;6.93;5.03;;;16.20;99.90;;;;;;20888602;22;20056;-79
2021/08/20 22:29:35;;;;;;;9.67;5.33;;;16.00;99.90;;;;;;21080028;28;20047;-79
2021/08/20 22:39:36;;;;;;;8.80;4.87;;;15.90;99.90;;;;;;21059677;28;20596;-79
2021/08/20 22:49:37;;;;;;;11.27;5.80;;;15.80;99.90;;;;;;21095839;28;20389;-79
2021/08/20 22:59:37;;;;;;;7.73;5.20;;;15.50;99.90;;;;;;21028088;28;20543;-79
2021/08/20 23:09:38;;;;;;;6.53;4.43;;;15.50;99.90;;;;;;21006877;28;20032;-80
2021/08/20 23:19:39;;;;;;;9.63;5.23;;;15.60;99.90;;;;;;21040521;28;20059;-79
2021/08/20 23:29:40;;;;;;;7.37;4.50;;;15.40;99.90;;;;;;21045969;28;20043;-79
2021/08/20 23:39:41;;;;;;;6.47;4.17;;;15.30;99.90;;;;;;21004413;28;20036;-80
2021/08/20 23:49:42;;;;;;;6.33;4.27;;;15.60;99.90;;;;;;21008247;28;20072;-79
2021/08/20 23:59:43;;;;;;;6.90;4.43;;;15.60;99.90;;;;;;21019644;28;20028;-79
